Audrey — PD9331 — position and weather

sailwx.info

Track history (hours):
 
Tides and Currents Weather Stations Pressure Air Temp Water Temp Dewpoint Dewpoint Depression Visibility Wind Speed Wind Dir Waves Ship Positions

Audrey

Last reported at 2017-May-22 13:45 UTC. Time now 2017-May-22 15:37 UTC.
Position N 53°15' E 006°33'.

Length 85 m; draft 1.5 m.

Type: Wing in ground effect craft. MMSI: 244660106.

Date/timePositionNaut miles runAvg speedWind from/ knotsBaromVisibWave heightAir tempDewpointWater temp
2017-May-22 13:45N 53°15' E 006°33'2 6.1
2017-May-22 13:28N 53°14' E 006°35'1 1.5
2017-May-22 13:00N 53°13' E 006°36'10 5.9
2017-May-22 11:21N 53°18' E 006°50'2 6.9
2017-May-22 11:00N 53°19' E 006°54'2 3.6
2017-May-22 10:30N 53°19' E 006°57'1 2.7
2017-May-22 10:00N 53°19' E 006°59'5 9.1
2017-May-22 09:30N 53°20' E 007°06'3 3.0
2017-May-22 08:24N 53°20' E 007°12'0 0.0
2017-May-22 07:06N 53°20' E 007°12'3 0.1
2017-May-20 06:10N 53°20' E 007°06'1 8.2
2017-May-20 06:00N 53°19' E 007°04'4 7.4
2017-May-20 05:30N 53°19' E 006°58'1 2.0
2017-May-20 05:00N 53°19' E 006°56'0 0.0
2017-May-20 04:30N 53°19' E 006°56'0 0.0
2017-May-20 04:00N 53°19' E 006°56'0 0.0
2017-May-20 03:30N 53°19' E 006°56'0 0.0
2017-May-20 03:00N 53°19' E 006°56'0 0.0
2017-May-20 02:30N 53°19' E 006°56'0 0.0
2017-May-20 02:00N 53°19' E 006°56'0 0.0
2017-May-20 01:30N 53°19' E 006°56'0 0.0
2017-May-20 01:00N 53°19' E 006°56'0 0.0
2017-May-20 00:30N 53°19' E 006°56'0 0.0
2017-May-20 00:00N 53°19' E 006°56'0 0.0
2017-May-19 23:30N 53°19' E 006°56'0 0.0
2017-May-19 23:00N 53°19' E 006°56'0 0.0
2017-May-19 22:30N 53°19' E 006°56'0 0.0
2017-May-19 22:00N 53°19' E 006°56'0 0.0
2017-May-19 21:30N 53°19' E 006°56'0 0.0
2017-May-19 20:54N 53°19' E 006°56'0 0.0
2017-May-19 20:30N 53°19' E 006°56'0 0.0
2017-May-19 20:00N 53°19' E 006°56'0 0.0
2017-May-19 19:30N 53°19' E 006°56'0 0.0
2017-May-19 19:00N 53°19' E 006°56'0 0.0
2017-May-19 18:30N 53°19' E 006°56'0 0.0
2017-May-19 17:59N 53°19' E 006°56'0 0.0
2017-May-19 17:30N 53°19' E 006°56'0 0.0
2017-May-19 17:00N 53°19' E 006°56'0 0.0
2017-May-19 16:30N 53°19' E 006°56'0 0.0
2017-May-19 16:00N 53°19' E 006°56'0 0.0
2017-May-19 15:30N 53°19' E 006°56'0 0.0
2017-May-19 15:00N 53°19' E 006°56'0 0.0
2017-May-19 14:00N 53°19' E 006°56'0 0.0
2017-May-19 13:30N 53°19' E 006°56'2 3.5
2017-May-19 13:00N 53°19' E 006°53'12 6.1
2017-May-19 11:05N 53°13' E 006°36'31 2.9
2017-May-19 00:28N 53°03' E 005°47'0 0.0
2017-May-18 21:12N 53°03' E 005°47'0 0.0
2017-May-18 20:46N 53°03' E 005°47'0 0.0
2017-May-18 20:05N 53°03' E 005°47'0 0.0
2017-May-18 19:58N 53°03' E 005°47'1 0.2
2017-May-18 17:37N 53°03' E 005°46'13 5.3
2017-May-18 15:12N 52°50' E 005°40'2 8.4
2017-May-18 15:00N 52°49' E 005°38'8 8.1
2017-May-18 14:00N 52°42' E 005°33'4 8.1
2017-May-18 13:30N 52°38' E 005°32'4 8.0
2017-May-18 13:00N 52°34' E 005°29'3 6.3
2017-May-18 12:30N 52°32' E 005°26'2 4.3
2017-May-18 12:00N 52°30' E 005°23'4 8.2
2017-May-18 11:30N 52°28' E 005°17'4 8.0
2017-May-18 11:00N 52°26' E 005°12'4 8.0
2017-May-18 10:30N 52°24' E 005°06'4 7.8
2017-May-18 10:00N 52°22' E 005°01'2 4.4
2017-May-18 09:30N 52°23' E 004°57'3 6.5
2017-May-18 09:00N 52°20' E 005°00'4 7.2
2017-May-18 08:30N 52°17' E 005°01'4 7.1
2017-May-18 08:00N 52°13' E 005°00'4 7.2
2017-May-18 07:30N 52°10' E 004°60'3 6.9
2017-May-18 07:00N 52°07' E 005°04'4 7.1
2017-May-18 06:30N 52°04' E 005°06'4 7.1
2017-May-18 06:00N 52°01' E 005°09'4 7.1
2017-May-18 05:26N 51°59' E 005°15'3 6.0
2017-May-18 05:01N 51°58' E 005°19'0 0.1
2017-May-18 04:31N 51°58' E 005°19'0 0.0
2017-May-18 04:01N 51°58' E 005°19'0 0.0
2017-May-18 03:31N 51°58' E 005°19'0 0.0
2017-May-18 03:01N 51°58' E 005°19'0 0.0
2017-May-18 02:31N 51°58' E 005°19'0 0.0
2017-May-18 02:01N 51°58' E 005°19'0 0.0
2017-May-18 01:31N 51°58' E 005°19'0 0.0
2017-May-18 01:01N 51°58' E 005°19'0 0.0
2017-May-18 00:31N 51°58' E 005°19'0 0.0
2017-May-18 00:01N 51°58' E 005°19'0 0.0
2017-May-17 23:31N 51°58' E 005°19'0 0.0
2017-May-17 23:01N 51°58' E 005°19'0 0.0
2017-May-17 22:31N 51°58' E 005°19'0 0.0
2017-May-17 22:01N 51°58' E 005°19'0 0.0
2017-May-17 21:31N 51°58' E 005°19'0 0.0
2017-May-17 21:01N 51°58' E 005°19'0 0.0
2017-May-17 20:31N 51°58' E 005°19'0 0.0
2017-May-17 20:01N 51°58' E 005°19'0 0.0
2017-May-17 19:31N 51°58' E 005°19'0 0.0
2017-May-17 19:01N 51°58' E 005°19'0 0.0
2017-May-17 18:31N 51°58' E 005°19'0 0.0
2017-May-17 18:01N 51°58' E 005°19'0 0.0
2017-May-17 17:31N 51°58' E 005°19'0 0.0
2017-May-17 17:01N 51°58' E 005°19'0 0.0
2017-May-17 16:31N 51°58' E 005°19'0 0.0
2017-May-17 16:01N 51°58' E 005°19'0 0.0
2017-May-17 15:31N 51°58' E 005°19'0 0.0
2017-May-17 15:01N 51°58' E 005°19'0 0.0
2017-May-17 14:01N 51°58' E 005°19'0 0.0
2017-May-17 13:31N 51°58' E 005°19'0 0.0
2017-May-17 13:01N 51°58' E 005°19'0 0.0
2017-May-17 12:31N 51°58' E 005°19'0 0.0
2017-May-17 12:01N 51°58' E 005°19'0 0.0
2017-May-17 11:31N 51°58' E 005°19'0 0.0
2017-May-17 11:01N 51°58' E 005°19'0 0.0
2017-May-17 10:31N 51°58' E 005°19'0 0.0
2017-May-17 10:01N 51°58' E 005°19'0 0.0
2017-May-17 09:30N 51°58' E 005°19'0 0.0
2017-May-17 09:01N 51°58' E 005°19'0 0.0
2017-May-17 08:31N 51°58' E 005°19'0 0.0
2017-May-17 08:01N 51°58' E 005°19'0 0.0
2017-May-17 07:30N 51°58' E 005°19'0 0.0
2017-May-17 07:01N 51°58' E 005°19'0 0.0
2017-May-17 06:31N 51°58' E 005°19'0 0.0
2017-May-17 06:01N 51°58' E 005°19'0 0.0
2017-May-17 05:31N 51°58' E 005°19'0 0.0
2017-May-17 05:01N 51°58' E 005°19'0 0.0
2017-May-17 04:31N 51°58' E 005°19'0 0.0
2017-May-17 04:01N 51°58' E 005°19'0 0.0
2017-May-17 03:31N 51°58' E 005°19'0 0.0
2017-May-17 03:01N 51°58' E 005°19'0 0.0
2017-May-17 02:31N 51°58' E 005°19'0 0.0
2017-May-17 02:01N 51°58' E 005°19'0 0.0
2017-May-17 01:31N 51°58' E 005°19'0 0.0
2017-May-17 01:01N 51°58' E 005°19'0 0.0
2017-May-17 00:31N 51°58' E 005°19'0 0.0
2017-May-17 00:01N 51°58' E 005°19'0 0.0
2017-May-16 23:31N 51°58' E 005°19'0 0.0
2017-May-16 23:00N 51°58' E 005°19'0 0.0
2017-May-16 22:31N 51°58' E 005°19'0 0.0
2017-May-16 22:00N 51°58' E 005°19'0 0.0
2017-May-16 21:31N 51°58' E 005°19'0 0.0
2017-May-16 21:01N 51°58' E 005°19'0 0.0
2017-May-16 20:31N 51°58' E 005°19'0 0.0
2017-May-16 20:01N 51°58' E 005°19'0 0.0
2017-May-16 19:31N 51°58' E 005°19'0 0.0
2017-May-16 19:01N 51°58' E 005°19'0 0.7
2017-May-16 18:31N 51°58' E 005°19'7 5.0
2017-May-16 17:05N 51°53' E 005°28'110.9
2017-May-16 16:59N 51°53' E 005°30'511.1
2017-May-16 16:30N 51°54' E 005°38'611.5
2017-May-16 16:01N 51°53' E 005°47'5 9.0
2017-May-16 15:30N 51°52' E 005°55'4 8.3
2017-May-16 15:01N 51°53' E 006°01'611.0
2017-May-16 14:31N 51°51' E 006°10'1010.4
2017-May-16 13:31N 51°45' E 006°24'4 8.0
2017-May-16 13:00N 51°42' E 006°28'4 8.9
2017-May-16 12:30N 51°40' E 006°34'4 8.2
2017-May-16 12:00N 51°36' E 006°36'4 7.4
2017-May-16 11:30N 51°34' E 006°41'4 8.5
2017-May-16 10:59N 51°30' E 006°43'3 6.5
2017-May-16 10:31N 51°27' E 006°43'10 7.3
2017-May-16 09:09N 51°17' E 006°42'2 9.0
2017-May-16 08:56N 51°15' E 006°44'2 4.4
2017-May-16 08:31N 51°13' E 006°43'4 8.0
2017-May-16 08:01N 51°11' E 006°48'12 7.0
2017-May-16 06:17N 51°00' E 006°58'3 8.1
2017-May-16 05:56N 50°58' E 006°59'4 8.7
2017-May-16 05:30N 50°54' E 006°60'3 5.3
2017-May-16 04:59N 50°51' E 006°60'3 7.4
2017-May-16 04:30N 50°48' E 007°02'5 9.8
2017-May-16 04:00N 50°44' E 007°07'  
Track history (hours):
 
Tides and Currents Weather Stations Pressure Air Temp Water Temp Dewpoint Dewpoint Depression Visibility Wind Speed Wind Dir Waves Ship Positions

Audrey

Last reported at 2017-May-22 13:45 UTC. Time now 2017-May-22 15:37 UTC.
Position N 53°15' E 006°33'.

Length 85 m; draft 1.5 m.

Type: Wing in ground effect craft. MMSI: 244660106.

Date/timePositionNaut miles runAvg speedWind from/ knotsBaromVisibWave heightAir tempDewpointWater temp
2017-May-22 13:45N 53°15' E 006°33'2 6.1
2017-May-22 13:28N 53°14' E 006°35'1 1.5
2017-May-22 13:00N 53°13' E 006°36'10 5.9
2017-May-22 11:21N 53°18' E 006°50'2 6.9
2017-May-22 11:00N 53°19' E 006°54'2 3.6
2017-May-22 10:30N 53°19' E 006°57'1 2.7
2017-May-22 10:00N 53°19' E 006°59'5 9.1
2017-May-22 09:30N 53°20' E 007°06'3 3.0
2017-May-22 08:24N 53°20' E 007°12'0 0.0
2017-May-22 07:06N 53°20' E 007°12'3 0.1
2017-May-20 06:10N 53°20' E 007°06'1 8.2
2017-May-20 06:00N 53°19' E 007°04'4 7.4
2017-May-20 05:30N 53°19' E 006°58'1 2.0
2017-May-20 05:00N 53°19' E 006°56'0 0.0
2017-May-20 04:30N 53°19' E 006°56'0 0.0
2017-May-20 04:00N 53°19' E 006°56'0 0.0
2017-May-20 03:30N 53°19' E 006°56'0 0.0
2017-May-20 03:00N 53°19' E 006°56'0 0.0
2017-May-20 02:30N 53°19' E 006°56'0 0.0
2017-May-20 02:00N 53°19' E 006°56'0 0.0
2017-May-20 01:30N 53°19' E 006°56'0 0.0
2017-May-20 01:00N 53°19' E 006°56'0 0.0
2017-May-20 00:30N 53°19' E 006°56'0 0.0
2017-May-20 00:00N 53°19' E 006°56'0 0.0
2017-May-19 23:30N 53°19' E 006°56'0 0.0
2017-May-19 23:00N 53°19' E 006°56'0 0.0
2017-May-19 22:30N 53°19' E 006°56'0 0.0
2017-May-19 22:00N 53°19' E 006°56'0 0.0
2017-May-19 21:30N 53°19' E 006°56'0 0.0
2017-May-19 20:54N 53°19' E 006°56'0 0.0
2017-May-19 20:30N 53°19' E 006°56'0 0.0
2017-May-19 20:00N 53°19' E 006°56'0 0.0
2017-May-19 19:30N 53°19' E 006°56'0 0.0
2017-May-19 19:00N 53°19' E 006°56'0 0.0
2017-May-19 18:30N 53°19' E 006°56'0 0.0
2017-May-19 17:59N 53°19' E 006°56'0 0.0
2017-May-19 17:30N 53°19' E 006°56'0 0.0
2017-May-19 17:00N 53°19' E 006°56'0 0.0
2017-May-19 16:30N 53°19' E 006°56'0 0.0
2017-May-19 16:00N 53°19' E 006°56'0 0.0
2017-May-19 15:30N 53°19' E 006°56'0 0.0
2017-May-19 15:00N 53°19' E 006°56'0 0.0
2017-May-19 14:00N 53°19' E 006°56'0 0.0
2017-May-19 13:30N 53°19' E 006°56'2 3.5
2017-May-19 13:00N 53°19' E 006°53'12 6.1
2017-May-19 11:05N 53°13' E 006°36'31 2.9
2017-May-19 00:28N 53°03' E 005°47'0 0.0
2017-May-18 21:12N 53°03' E 005°47'0 0.0
2017-May-18 20:46N 53°03' E 005°47'0 0.0
2017-May-18 20:05N 53°03' E 005°47'0 0.0
2017-May-18 19:58N 53°03' E 005°47'1 0.2
2017-May-18 17:37N 53°03' E 005°46'13 5.3
2017-May-18 15:12N 52°50' E 005°40'2 8.4
2017-May-18 15:00N 52°49' E 005°38'8 8.1
2017-May-18 14:00N 52°42' E 005°33'4 8.1
2017-May-18 13:30N 52°38' E 005°32'4 8.0
2017-May-18 13:00N 52°34' E 005°29'3 6.3
2017-May-18 12:30N 52°32' E 005°26'2 4.3
2017-May-18 12:00N 52°30' E 005°23'4 8.2
2017-May-18 11:30N 52°28' E 005°17'4 8.0
2017-May-18 11:00N 52°26' E 005°12'4 8.0
2017-May-18 10:30N 52°24' E 005°06'4 7.8
2017-May-18 10:00N 52°22' E 005°01'2 4.4
2017-May-18 09:30N 52°23' E 004°57'3 6.5
2017-May-18 09:00N 52°20' E 005°00'4 7.2
2017-May-18 08:30N 52°17' E 005°01'4 7.1
2017-May-18 08:00N 52°13' E 005°00'4 7.2
2017-May-18 07:30N 52°10' E 004°60'3 6.9
2017-May-18 07:00N 52°07' E 005°04'4 7.1
2017-May-18 06:30N 52°04' E 005°06'4 7.1
2017-May-18 06:00N 52°01' E 005°09'4 7.1
2017-May-18 05:26N 51°59' E 005°15'3 6.0
2017-May-18 05:01N 51°58' E 005°19'0 0.1
2017-May-18 04:31N 51°58' E 005°19'0 0.0
2017-May-18 04:01N 51°58' E 005°19'0 0.0
2017-May-18 03:31N 51°58' E 005°19'0 0.0
2017-May-18 03:01N 51°58' E 005°19'0 0.0
2017-May-18 02:31N 51°58' E 005°19'0 0.0
2017-May-18 02:01N 51°58' E 005°19'0 0.0
2017-May-18 01:31N 51°58' E 005°19'0 0.0
2017-May-18 01:01N 51°58' E 005°19'0 0.0
2017-May-18 00:31N 51°58' E 005°19'0 0.0
2017-May-18 00:01N 51°58' E 005°19'0 0.0
2017-May-17 23:31N 51°58' E 005°19'0 0.0
2017-May-17 23:01N 51°58' E 005°19'0 0.0
2017-May-17 22:31N 51°58' E 005°19'0 0.0
2017-May-17 22:01N 51°58' E 005°19'0 0.0
2017-May-17 21:31N 51°58' E 005°19'0 0.0
2017-May-17 21:01N 51°58' E 005°19'0 0.0
2017-May-17 20:31N 51°58' E 005°19'0 0.0
2017-May-17 20:01N 51°58' E 005°19'0 0.0
2017-May-17 19:31N 51°58' E 005°19'0 0.0
2017-May-17 19:01N 51°58' E 005°19'0 0.0
2017-May-17 18:31N 51°58' E 005°19'0 0.0
2017-May-17 18:01N 51°58' E 005°19'0 0.0
2017-May-17 17:31N 51°58' E 005°19'0 0.0
2017-May-17 17:01N 51°58' E 005°19'0 0.0
2017-May-17 16:31N 51°58' E 005°19'0 0.0
2017-May-17 16:01N 51°58' E 005°19'0 0.0
2017-May-17 15:31N 51°58' E 005°19'0 0.0
2017-May-17 15:01N 51°58' E 005°19'0 0.0
2017-May-17 14:01N 51°58' E 005°19'0 0.0
2017-May-17 13:31N 51°58' E 005°19'0 0.0
2017-May-17 13:01N 51°58' E 005°19'0 0.0
2017-May-17 12:31N 51°58' E 005°19'0 0.0
2017-May-17 12:01N 51°58' E 005°19'0 0.0
2017-May-17 11:31N 51°58' E 005°19'0 0.0
2017-May-17 11:01N 51°58' E 005°19'0 0.0
2017-May-17 10:31N 51°58' E 005°19'0 0.0
2017-May-17 10:01N 51°58' E 005°19'0 0.0
2017-May-17 09:30N 51°58' E 005°19'0 0.0
2017-May-17 09:01N 51°58' E 005°19'0 0.0
2017-May-17 08:31N 51°58' E 005°19'0 0.0
2017-May-17 08:01N 51°58' E 005°19'0 0.0
2017-May-17 07:30N 51°58' E 005°19'0 0.0
2017-May-17 07:01N 51°58' E 005°19'0 0.0
2017-May-17 06:31N 51°58' E 005°19'0 0.0
2017-May-17 06:01N 51°58' E 005°19'0 0.0
2017-May-17 05:31N 51°58' E 005°19'0 0.0
2017-May-17 05:01N 51°58' E 005°19'0 0.0
2017-May-17 04:31N 51°58' E 005°19'0 0.0
2017-May-17 04:01N 51°58' E 005°19'0 0.0
2017-May-17 03:31N 51°58' E 005°19'0 0.0
2017-May-17 03:01N 51°58' E 005°19'0 0.0
2017-May-17 02:31N 51°58' E 005°19'0 0.0
2017-May-17 02:01N 51°58' E 005°19'0 0.0
2017-May-17 01:31N 51°58' E 005°19'0 0.0
2017-May-17 01:01N 51°58' E 005°19'0 0.0
2017-May-17 00:31N 51°58' E 005°19'0 0.0
2017-May-17 00:01N 51°58' E 005°19'0 0.0
2017-May-16 23:31N 51°58' E 005°19'0 0.0
2017-May-16 23:00N 51°58' E 005°19'0 0.0
2017-May-16 22:31N 51°58' E 005°19'0 0.0
2017-May-16 22:00N 51°58' E 005°19'0 0.0
2017-May-16 21:31N 51°58' E 005°19'0 0.0
2017-May-16 21:01N 51°58' E 005°19'0 0.0
2017-May-16 20:31N 51°58' E 005°19'0 0.0
2017-May-16 20:01N 51°58' E 005°19'0 0.0
2017-May-16 19:31N 51°58' E 005°19'0 0.0
2017-May-16 19:01N 51°58' E 005°19'0 0.7
2017-May-16 18:31N 51°58' E 005°19'7 5.0
2017-May-16 17:05N 51°53' E 005°28'110.9
2017-May-16 16:59N 51°53' E 005°30'511.1
2017-May-16 16:30N 51°54' E 005°38'611.5
2017-May-16 16:01N 51°53' E 005°47'5 9.0
2017-May-16 15:30N 51°52' E 005°55'4 8.3
2017-May-16 15:01N 51°53' E 006°01'611.0
2017-May-16 14:31N 51°51' E 006°10'1010.4
2017-May-16 13:31N 51°45' E 006°24'4 8.0
2017-May-16 13:00N 51°42' E 006°28'4 8.9
2017-May-16 12:30N 51°40' E 006°34'4 8.2
2017-May-16 12:00N 51°36' E 006°36'4 7.4
2017-May-16 11:30N 51°34' E 006°41'4 8.5
2017-May-16 10:59N 51°30' E 006°43'3 6.5
2017-May-16 10:31N 51°27' E 006°43'10 7.3
2017-May-16 09:09N 51°17' E 006°42'2 9.0
2017-May-16 08:56N 51°15' E 006°44'2 4.4
2017-May-16 08:31N 51°13' E 006°43'4 8.0
2017-May-16 08:01N 51°11' E 006°48'12 7.0
2017-May-16 06:17N 51°00' E 006°58'3 8.1
2017-May-16 05:56N 50°58' E 006°59'4 8.7
2017-May-16 05:30N 50°54' E 006°60'3 5.3
2017-May-16 04:59N 50°51' E 006°60'3 7.4
2017-May-16 04:30N 50°48' E 007°02'5 9.8
2017-May-16 04:00N 50°44' E 007°07'  

Dump ship's entire track history